Fultonville, New York
Current Conditions -  °F | °C
As of 3:15 AM on Friday 24 Oct 2014 (Local Time) from KNY0 Reporting Station
Overcast Overcast  
Wind Chill: 38°   Ceiling: 3400
Heat Index: 42°   Visibility: 10mi
Dew Point: 42°   Wind: 7mph
Humidity: 97%   Direction: 250°WSW
Pressure: 29.82"   Gusts: NA
Location:  42.95°N, 74.37°W
Report Text: KNY0 240715Z AUTO 25006KT 10SM SCT026 OVC034 06/05 A2982 RMK AO2 P0001 T00580053
Loading
Personal Weather Stations






























Interactive Weather Map
Tropical Storm Tracking
New forecast layout! Learn more

10-Day Weather Forecast

Advertisements
Track Severe Weather on mobile